Time;durP1;ratioP1;P1;durP2;ratioP2;P2;SDS_P1;SDS_P2;PMS_P1;PMS_P2;Temp;Humidity;BMP_temperature;BMP_pressure;BME280_temperature;BME280_humidity;BME280_pressure;Samples;Min_cycle;Max_cycle;Signal;HPM_P1;HPM_P2
2021/05/02 00:00:30;;;;;;;14.30;10.33;;;8.50;99.90;;;;;;5091441;28;20871;-60
2021/05/02 00:03:00;;;;;;;15.50;11.38;;;8.40;99.90;;;;;;5089812;28;20491;-60
2021/05/02 00:05:31;;;;;;;15.15;9.73;;;8.40;99.90;;;;;;5089925;28;20828;-59
2021/05/02 00:07:59;;;;;;;12.30;10.40;;;8.30;99.90;;;;;;5093185;28;20426;-60
2021/05/02 00:10:29;;;;;;;13.15;9.70;;;8.30;99.90;;;;;;5095415;28;20475;-60
2021/05/02 00:12:59;;;;;;;13.23;9.67;;;8.40;99.90;;;;;;5095177;28;20841;-60
2021/05/02 00:15:26;;;;;;;13.98;9.23;;;8.40;99.90;;;;;;5095495;28;20857;-59
2021/05/02 00:17:53;;;;;;;14.65;8.88;;;8.30;99.90;;;;;;5096244;28;20718;-60
2021/05/02 00:20:22;;;;;;;14.27;10.27;;;8.40;99.90;;;;;;5096888;28;20414;-59
2021/05/02 00:22:51;;;;;;;14.32;10.25;;;8.40;99.90;;;;;;5097996;28;20426;-61
2021/05/02 00:25:19;;;;;;;12.43;9.32;;;8.40;99.90;;;;;;5097740;28;20502;-60
2021/05/02 00:27:47;;;;;;;12.63;10.20;;;8.40;99.90;;;;;;5098120;28;20425;-60
2021/05/02 00:30:17;;;;;;;12.70;9.90;;;8.20;99.90;;;;;;5097360;28;20855;-60
2021/05/02 00:32:46;;;;;;;12.20;8.93;;;8.30;99.90;;;;;;5097571;28;20426;-60
2021/05/02 00:35:14;;;;;;;13.53;10.27;;;8.20;99.90;;;;;;5096726;28;20487;-60
2021/05/02 00:37:42;;;;;;;10.97;8.50;;;8.10;99.90;;;;;;5097603;28;20426;-60
2021/05/02 00:40:12;;;;;;;13.48;8.77;;;8.00;99.90;;;;;;5097238;28;20429;-60
2021/05/02 00:42:46;;;;;;;13.45;10.10;;;8.10;99.90;;;;;;5096528;28;20426;-59
2021/05/02 00:45:20;;;;;;;13.27;9.30;;;8.10;99.90;;;;;;5094680;28;20410;-60
2021/05/02 00:47:52;;;;;;;12.38;10.40;;;8.20;99.90;;;;;;5095412;28;20763;-59
2021/05/02 00:50:27;;;;;;;10.70;9.55;;;8.20;99.90;;;;;;5094428;28;20811;-60
2021/05/02 00:53:29;;;;;;;12.30;8.38;;;8.20;99.90;;;;;;5095529;28;20430;-59
2021/05/02 00:55:58;;;;;;;11.80;9.60;;;8.10;99.90;;;;;;5095815;28;20421;-60
2021/05/02 00:58:35;;;;;;;11.55;8.95;;;8.00;99.90;;;;;;5096763;28;20421;-59
2021/05/02 01:01:05;;;;;;;12.43;9.90;;;8.00;99.90;;;;;;5097368;28;20477;-59
2021/05/02 01:03:33;;;;;;;12.45;10.00;;;7.90;99.90;;;;;;5094657;28;20441;-59
2021/05/02 01:06:07;;;;;;;12.05;9.38;;;8.00;99.90;;;;;;5092353;28;20829;-59
2021/05/02 01:08:36;;;;;;;12.30;9.48;;;8.00;99.90;;;;;;5094196;28;20425;-58
2021/05/02 01:11:05;;;;;;;11.18;9.48;;;8.00;99.90;;;;;;5094202;28;20783;-59
2021/05/02 01:13:37;;;;;;;11.15;9.00;;;8.00;99.90;;;;;;5093308;28;20748;-59
2021/05/02 01:16:06;;;;;;;12.85;8.93;;;8.00;99.90;;;;;;5092841;28;20767;-59
2021/05/02 01:18:33;;;;;;;11.65;8.57;;;8.20;99.90;;;;;;5091349;28;20425;-59
2021/05/02 01:21:00;;;;;;;11.02;8.82;;;8.10;99.90;;;;;;5095142;28;20505;-58
2021/05/02 01:23:30;;;;;;;12.53;8.97;;;8.10;99.90;;;;;;5094993;28;20421;-58
2021/05/02 01:25:58;;;;;;;13.93;9.90;;;8.20;99.90;;;;;;5095573;28;20418;-58
2021/05/02 01:28:26;;;;;;;11.57;8.75;;;8.10;99.90;;;;;;5096981;28;20840;-58
2021/05/02 01:30:54;;;;;;;12.38;9.30;;;8.10;99.90;;;;;;5096530;28;20710;-58
2021/05/02 01:33:20;;;;;;;10.13;8.38;;;8.10;99.90;;;;;;5096496;28;20483;-58
2021/05/02 01:35:48;;;;;;;11.20;8.30;;;8.00;99.90;;;;;;5096366;28;20430;-59
2021/05/02 01:38:15;;;;;;;11.32;8.30;;;8.00;99.90;;;;;;5096480;28;20425;-59
2021/05/02 01:40:43;;;;;;;10.80;9.23;;;8.10;99.90;;;;;;5096535;28;20422;-59
2021/05/02 01:43:09;;;;;;;11.95;8.23;;;8.00;99.90;;;;;;5096825;28;20422;-58
2021/05/02 01:45:36;;;;;;;10.20;7.68;;;8.00;99.90;;;;;;5096395;28;20704;-59
2021/05/02 01:48:05;;;;;;;11.43;8.50;;;8.10;99.90;;;;;;5096810;28;20459;-58
2021/05/02 01:50:35;;;;;;;12.95;8.75;;;8.10;99.90;;;;;;5095838;28;20414;-58
2021/05/02 01:53:03;;;;;;;11.82;8.45;;;8.10;99.90;;;;;;5093971;28;20853;-58
2021/05/02 01:55:31;;;;;;;10.85;8.73;;;8.00;99.90;;;;;;5093801;28;20500;-58
2021/05/02 01:58:00;;;;;;;12.43;8.68;;;8.00;99.90;;;;;;5093217;28;20438;-59
2021/05/02 02:00:38;;;;;;;12.30;9.05;;;7.90;99.90;;;;;;5094020;28;20425;-59
2021/05/02 02:03:06;;;;;;;12.27;9.17;;;7.90;99.90;;;;;;5093762;28;20422;-59
2021/05/02 02:05:33;;;;;;;12.80;9.70;;;7.90;99.90;;;;;;5091353;28;20418;-59
2021/05/02 02:08:00;;;;;;;9.85;8.85;;;7.90;99.90;;;;;;5092883;28;20825;-59
2021/05/02 02:10:28;;;;;;;11.68;10.00;;;7.90;99.90;;;;;;5094846;28;20479;-59
2021/05/02 02:12:54;;;;;;;11.60;8.98;;;7.90;99.90;;;;;;5095508;28;20829;-59
2021/05/02 02:15:25;;;;;;;11.38;10.18;;;8.00;99.90;;;;;;5095179;28;20426;-59
2021/05/02 02:17:52;;;;;;;11.50;8.70;;;8.00;99.90;;;;;;5095672;28;20436;-60
2021/05/02 02:20:18;;;;;;;13.35;10.10;;;8.00;99.90;;;;;;5095562;28;20414;-60
2021/05/02 02:22:46;;;;;;;11.75;8.85;;;8.00;99.90;;;;;;5095824;28;20486;-60
2021/05/02 02:25:13;;;;;;;10.57;9.48;;;8.00;99.90;;;;;;5095584;28;20864;-60
2021/05/02 02:27:40;;;;;;;16.15;11.57;;;8.00;99.90;;;;;;5095918;28;20425;-60
2021/05/02 02:30:10;;;;;;;12.65;10.70;;;7.60;99.90;;;;;;5095337;28;20833;-60
2021/05/02 02:32:45;;;;;;;14.77;10.80;;;7.60;99.90;;;;;;5095401;28;20742;-60
2021/05/02 02:35:17;;;;;;;10.25;8.25;;;7.60;99.90;;;;;;5095007;28;20441;-60
2021/05/02 02:37:47;;;;;;;15.43;10.60;;;7.70;99.90;;;;;;5095731;28;20828;-60
2021/05/02 02:40:15;;;;;;;13.10;11.07;;;7.70;99.90;;;;;;5094746;28;20788;-60
2021/05/02 02:42:45;;;;;;;15.23;11.30;;;7.60;99.90;;;;;;5095289;28;20436;-60
2021/05/02 02:45:14;;;;;;;13.45;10.40;;;7.60;99.90;;;;;;5095385;28;20425;-60
2021/05/02 02:47:46;;;;;;;15.63;11.60;;;7.60;99.90;;;;;;5095320;28;20448;-60
2021/05/02 02:50:14;;;;;;;13.57;11.65;;;7.70;99.90;;;;;;5095073;28;20425;-60
2021/05/02 02:52:48;;;;;;;13.63;11.32;;;7.80;99.90;;;;;;5095011;28;20438;-59
2021/05/02 02:55:17;;;;;;;14.37;11.47;;;7.70;99.90;;;;;;5095302;28;20430;-59
2021/05/02 02:57:48;;;;;;;14.77;12.10;;;7.70;99.90;;;;;;5095181;28;20429;-59
2021/05/02 03:00:17;;;;;;;13.13;10.60;;;7.70;99.90;;;;;;5095298;28;20735;-59
2021/05/02 03:02:49;;;;;;;15.68;11.60;;;7.70;99.90;;;;;;5094370;28;20426;-59
2021/05/02 03:05:19;;;;;;;13.77;11.13;;;7.60;99.90;;;;;;5094987;28;20853;-59
2021/05/02 03:07:48;;;;;;;12.68;11.07;;;7.60;99.90;;;;;;5094041;28;20434;-60
2021/05/02 03:10:15;;;;;;;14.20;11.10;;;7.80;99.90;;;;;;5093852;28;20467;-60
2021/05/02 03:12:43;;;;;;;12.40;10.03;;;7.90;99.90;;;;;;5093081;28;20425;-60
2021/05/02 03:15:11;;;;;;;12.27;9.80;;;8.00;99.90;;;;;;5092744;28;20430;-60
2021/05/02 03:17:41;;;;;;;15.27;11.95;;;8.00;99.90;;;;;;5092924;28;20433;-60
2021/05/02 03:20:14;;;;;;;12.55;10.77;;;7.80;99.90;;;;;;5093762;28;20640;-60
2021/05/02 03:22:46;;;;;;;14.52;11.25;;;7.70;99.90;;;;;;5093542;28;20487;-60
2021/05/02 03:25:14;;;;;;;15.55;12.13;;;7.60;99.90;;;;;;5093977;28;20905;-60
2021/05/02 03:27:47;;;;;;;13.18;11.10;;;7.70;99.90;;;;;;5094439;28;20825;-60
2021/05/02 03:30:15;;;;;;;14.77;11.65;;;7.80;99.90;;;;;;5094504;28;20421;-61
2021/05/02 03:32:48;;;;;;;13.80;10.70;;;7.80;99.90;;;;;;5094268;28;20856;-61
2021/05/02 03:35:17;;;;;;;14.82;11.00;;;7.90;99.90;;;;;;5093647;28;20429;-61
2021/05/02 03:37:49;;;;;;;12.13;10.15;;;8.00;99.90;;;;;;5094160;28;20422;-61
2021/05/02 03:40:17;;;;;;;12.60;9.77;;;8.00;99.90;;;;;;5094952;28;20418;-61
2021/05/02 03:42:44;;;;;;;10.70;9.60;;;8.00;99.90;;;;;;5096811;28;20430;-61
2021/05/02 03:45:11;;;;;;;14.35;11.20;;;8.00;99.90;;;;;;5097018;28;20412;-61
2021/05/02 03:47:38;;;;;;;14.65;11.50;;;8.00;99.90;;;;;;5097263;28;20430;-60
2021/05/02 03:50:06;;;;;;;14.10;11.50;;;8.00;99.90;;;;;;5096883;28;20833;-61
2021/05/02 03:52:34;;;;;;;12.50;9.70;;;8.00;99.90;;;;;;5095559;28;20425;-61
2021/05/02 03:55:01;;;;;;;13.15;11.68;;;8.00;99.90;;;;;;5095689;28;20437;-61
2021/05/02 03:57:27;;;;;;;15.18;11.30;;;7.90;99.90;;;;;;5096621;28;20417;-61
2021/05/02 03:59:54;;;;;;;13.80;11.50;;;7.90;99.90;;;;;;5096688;28;20414;-61
2021/05/02 04:02:21;;;;;;;13.47;11.87;;;7.90;99.90;;;;;;5096329;28;20432;-61
2021/05/02 04:04:48;;;;;;;14.20;11.50;;;7.90;99.90;;;;;;5096307;28;20418;-61
2021/05/02 04:07:15;;;;;;;13.23;10.85;;;7.80;99.90;;;;;;5096972;28;20426;-61
2021/05/02 04:09:45;;;;;;;12.05;10.75;;;7.80;99.90;;;;;;5096984;28;20459;-61
2021/05/02 04:12:13;;;;;;;13.27;11.75;;;8.00;99.90;;;;;;5097164;28;20516;-61
2021/05/02 04:14:40;;;;;;;13.52;10.38;;;8.00;99.90;;;;;;5097799;28;20421;-61
2021/05/02 04:17:08;;;;;;;15.77;11.50;;;8.00;99.90;;;;;;5098532;28;20890;-61
2021/05/02 04:19:37;;;;;;;13.65;11.48;;;8.00;99.90;;;;;;5098403;28;20413;-61
2021/05/02 04:22:05;;;;;;;14.73;11.73;;;7.90;99.90;;;;;;5098226;28;20428;-61
2021/05/02 04:24:32;;;;;;;14.73;11.93;;;7.80;99.90;;;;;;5097876;28;20410;-61
2021/05/02 04:27:01;;;;;;;12.93;11.63;;;7.90;99.90;;;;;;5098085;28;20428;-61
2021/05/02 04:29:30;;;;;;;16.70;12.98;;;7.80;99.90;;;;;;5098052;28;20430;-60
2021/05/02 04:31:57;;;;;;;14.38;11.65;;;7.80;99.90;;;;;;5097827;28;20468;-61
2021/05/02 04:34:23;;;;;;;14.80;11.63;;;7.70;99.90;;;;;;5097672;28;20706;-61
2021/05/02 04:36:51;;;;;;;16.13;12.10;;;7.80;99.90;;;;;;5098246;28;20410;-60
2021/05/02 04:39:19;;;;;;;13.65;11.88;;;7.70;99.90;;;;;;5098016;28;20725;-60
2021/05/02 04:41:46;;;;;;;14.95;11.27;;;7.70;99.90;;;;;;5097873;28;20752;-60
2021/05/02 04:44:14;;;;;;;14.73;12.82;;;7.70;99.90;;;;;;5097992;28;20813;-60
2021/05/02 04:46:41;;;;;;;14.55;12.43;;;7.70;99.90;;;;;;5097346;28;20414;-60
2021/05/02 04:49:08;;;;;;;16.08;12.43;;;7.70;99.90;;;;;;5097909;28;20425;-60
2021/05/02 04:51:35;;;;;;;15.37;12.20;;;7.60;99.90;;;;;;5097618;28;20822;-60
2021/05/02 04:54:02;;;;;;;14.90;12.32;;;7.60;99.90;;;;;;5097455;28;20763;-60
2021/05/02 04:56:29;;;;;;;14.50;12.25;;;7.50;99.90;;;;;;5097917;28;20702;-60
2021/05/02 04:58:56;;;;;;;15.63;12.67;;;7.50;99.90;;;;;;5097585;28;20760;-60
2021/05/02 05:01:24;;;;;;;15.20;12.43;;;7.50;99.90;;;;;;5097636;28;20410;-60
2021/05/02 05:03:50;;;;;;;13.43;11.88;;;7.50;99.90;;;;;;5097418;28;20466;-60
2021/05/02 05:06:17;;;;;;;16.40;12.32;;;7.50;99.90;;;;;;5097394;28;20730;-60
2021/05/02 05:08:44;;;;;;;13.83;12.00;;;7.50;99.90;;;;;;5097632;28;20447;-60
2021/05/02 05:11:10;;;;;;;15.52;12.50;;;7.60;99.90;;;;;;5097334;28;20463;-59
2021/05/02 05:13:37;;;;;;;13.20;11.65;;;7.60;99.90;;;;;;5097023;28;20767;-60
2021/05/02 05:16:04;;;;;;;15.40;11.70;;;7.60;99.90;;;;;;5096671;28;20429;-59
2021/05/02 05:18:32;;;;;;;15.32;12.75;;;7.60;99.90;;;;;;5097138;28;20425;-60
2021/05/02 05:21:00;;;;;;;14.55;11.70;;;7.50;99.90;;;;;;5097543;28;20436;-60
2021/05/02 05:23:26;;;;;;;16.55;12.10;;;7.50;99.90;;;;;;5096765;28;20503;-60
2021/05/02 05:25:54;;;;;;;15.70;12.40;;;7.50;99.90;;;;;;5096600;28;20418;-60
2021/05/02 05:28:23;;;;;;;15.95;12.50;;;7.60;99.90;;;;;;5097115;28;20863;-60
2021/05/02 05:30:50;;;;;;;15.73;11.87;;;7.60;99.90;;;;;;5097391;28;20552;-60
2021/05/02 05:33:16;;;;;;;15.97;12.37;;;7.60;99.90;;;;;;5096203;28;20448;-59
2021/05/02 05:35:44;;;;;;;16.77;13.20;;;7.60;99.90;;;;;;5096694;28;20791;-59
2021/05/02 05:38:11;;;;;;;19.25;13.32;;;7.50;99.90;;;;;;5096655;28;20426;-60
2021/05/02 05:40:38;;;;;;;17.02;13.07;;;7.50;99.90;;;;;;5096699;28;20418;-60
2021/05/02 05:43:05;;;;;;;16.13;12.10;;;7.40;99.90;;;;;;5096054;28;20729;-59
2021/05/02 05:45:32;;;;;;;15.70;12.45;;;7.40;99.90;;;;;;5096115;28;20414;-59
2021/05/02 05:48:00;;;;;;;16.60;13.20;;;7.40;99.90;;;;;;5096423;28;20429;-59
2021/05/02 05:50:28;;;;;;;13.82;11.18;;;7.50;99.90;;;;;;5096239;28;20418;-60
2021/05/02 05:52:56;;;;;;;18.23;13.07;;;7.40;99.90;;;;;;5096300;28;20472;-59
2021/05/02 05:55:23;;;;;;;17.60;13.10;;;7.40;99.90;;;;;;5096180;28;20737;-59
2021/05/02 05:57:51;;;;;;;16.25;12.82;;;7.50;99.90;;;;;;5095881;28;20430;-59
2021/05/02 06:00:20;;;;;;;17.83;13.68;;;7.40;99.90;;;;;;5095936;28;20421;-58
2021/05/02 06:02:47;;;;;;;17.37;13.20;;;7.40;99.90;;;;;;5095069;28;20434;-58
2021/05/02 06:05:14;;;;;;;16.15;12.68;;;7.40;99.90;;;;;;5094525;28;20414;-58
2021/05/02 06:07:41;;;;;;;15.68;13.32;;;7.40;99.90;;;;;;5095509;28;20487;-59
2021/05/02 06:10:10;;;;;;;14.83;12.90;;;7.50;99.90;;;;;;5095524;28;20424;-59
2021/05/02 06:12:37;;;;;;;16.80;12.68;;;7.60;99.90;;;;;;5095535;28;20425;-59
2021/05/02 06:15:05;;;;;;;13.30;11.90;;;7.70;99.90;;;;;;5095360;28;20433;-59
2021/05/02 06:17:32;;;;;;;14.75;11.75;;;7.80;99.90;;;;;;5095863;28;20421;-58
2021/05/02 06:19:59;;;;;;;16.15;12.48;;;7.90;99.90;;;;;;5095579;28;20422;-59
2021/05/02 06:22:25;;;;;;;13.57;10.82;;;8.00;99.90;;;;;;5095951;28;20433;-59
2021/05/02 06:24:52;;;;;;;15.07;11.63;;;8.10;99.90;;;;;;5095422;28;20414;-58
2021/05/02 06:27:19;;;;;;;13.30;11.10;;;8.10;99.90;;;;;;5095772;28;20441;-59
2021/05/02 06:29:46;;;;;;;13.40;11.30;;;8.10;99.90;;;;;;5095474;28;20706;-58
2021/05/02 06:32:13;;;;;;;13.27;10.98;;;8.10;99.90;;;;;;5095294;28;20425;-58
2021/05/02 06:34:39;;;;;;;14.57;12.48;;;8.10;99.90;;;;;;5094392;28;20496;-59
2021/05/02 06:37:06;;;;;;;12.57;11.02;;;8.20;99.90;;;;;;5095856;28;20628;-58
2021/05/02 06:39:33;;;;;;;12.77;10.68;;;8.20;99.90;;;;;;5095290;28;20425;-58
2021/05/02 06:42:00;;;;;;;14.45;10.68;;;8.20;99.90;;;;;;5095167;28;20426;-58
2021/05/02 06:44:27;;;;;;;12.43;11.13;;;8.20;99.90;;;;;;5095073;28;20410;-58
2021/05/02 06:46:55;;;;;;;13.23;10.68;;;8.10;99.90;;;;;;5094599;28;20418;-59
2021/05/02 06:49:22;;;;;;;14.60;10.27;;;8.00;99.90;;;;;;5094502;28;20413;-58
2021/05/02 06:51:49;;;;;;;12.10;10.40;;;7.90;99.90;;;;;;5094805;28;20428;-58
2021/05/02 06:54:15;;;;;;;12.32;10.73;;;7.90;99.90;;;;;;5094832;28;20472;-59
2021/05/02 06:56:42;;;;;;;12.80;11.23;;;8.00;99.90;;;;;;5093541;28;20429;-57
2021/05/02 06:59:09;;;;;;;12.52;10.38;;;8.10;99.90;;;;;;5094044;28;20817;-57
2021/05/02 07:01:37;;;;;;;11.35;9.90;;;8.30;99.90;;;;;;5094204;28;20456;-58
2021/05/02 07:04:04;;;;;;;10.10;9.02;;;8.40;99.90;;;;;;5093277;28;20509;-58
2021/05/02 07:06:30;;;;;;;10.80;8.90;;;8.60;99.90;;;;;;5093217;28;20797;-58
2021/05/02 07:08:57;;;;;;;10.13;8.60;;;8.60;99.90;;;;;;5093260;28;20851;-57
2021/05/02 07:11:27;;;;;;;9.75;8.60;;;8.90;99.90;;;;;;5093020;28;20413;-58
2021/05/02 07:13:53;;;;;;;9.20;7.82;;;8.90;99.90;;;;;;5093776;28;20430;-58
2021/05/02 07:16:21;;;;;;;9.30;8.10;;;9.00;99.90;;;;;;5092895;28;20721;-59
2021/05/02 07:18:50;;;;;;;8.57;7.47;;;9.00;99.90;;;;;;5094286;28;20429;-58
2021/05/02 07:21:18;;;;;;;10.73;8.15;;;8.90;99.90;;;;;;5094020;28;20475;-58
2021/05/02 07:23:48;;;;;;;11.55;8.27;;;9.00;99.90;;;;;;5093774;28;20429;-58
2021/05/02 07:26:15;;;;;;;9.25;7.45;;;9.10;99.90;;;;;;5093136;28;20418;-59
2021/05/02 07:28:42;;;;;;;8.43;7.35;;;9.10;99.90;;;;;;5110378;28;20534;-58
2021/05/02 07:31:10;;;;;;;7.45;6.45;;;9.20;99.90;;;;;;5112171;28;20420;-58
2021/05/02 07:33:37;;;;;;;7.22;6.30;;;9.50;99.90;;;;;;5111925;28;20874;-58
2021/05/02 07:36:06;;;;;;;6.85;6.20;;;9.80;99.90;;;;;;5113140;28;20427;-58
2021/05/02 07:38:33;;;;;;;7.60;6.65;;;9.90;99.90;;;;;;5113424;28;20419;-58
2021/05/02 07:41:00;;;;;;;7.70;6.25;;;9.90;99.90;;;;;;5113815;28;20408;-58
2021/05/02 07:43:27;;;;;;;6.28;5.63;;;10.00;99.90;;;;;;5113262;28;20430;-57
2021/05/02 07:45:54;;;;;;;7.35;6.65;;;10.10;99.90;;;;;;5111483;28;20415;-58
2021/05/02 07:48:20;;;;;;;6.70;5.70;;;10.30;99.90;;;;;;5111280;28;20897;-55
2021/05/02 07:50:47;;;;;;;7.00;6.30;;;10.10;99.90;;;;;;5111025;28;20419;-58
2021/05/02 07:53:17;;;;;;;6.47;5.55;;;10.00;99.90;;;;;;5113179;28;20785;-56
2021/05/02 07:55:44;;;;;;;6.93;5.85;;;10.20;99.90;;;;;;5111210;28;20916;-58
2021/05/02 07:58:11;;;;;;;7.57;6.85;;;10.40;99.90;;;;;;5112905;28;20424;-57
2021/05/02 08:00:38;;;;;;;6.18;5.57;;;10.50;99.90;;;;;;5114129;28;20515;-52
2021/05/02 08:03:05;;;;;;;6.50;5.80;;;10.50;99.90;;;;;;5112943;28;20523;-52
2021/05/02 08:05:31;;;;;;;6.68;5.72;;;10.80;99.90;;;;;;5113547;28;20865;-52
2021/05/02 08:07:58;;;;;;;5.80;5.03;;;10.80;99.90;;;;;;5114059;28;20428;-49
2021/05/02 08:10:26;;;;;;;6.22;4.60;;;10.80;99.90;;;;;;5113612;28;20417;-55
2021/05/02 08:12:53;;;;;;;5.00;4.40;;;10.70;99.90;;;;;;5112566;28;20728;-50
2021/05/02 08:15:20;;;;;;;5.78;5.10;;;10.70;99.90;;;;;;5113321;28;20448;-54
2021/05/02 08:17:47;;;;;;;6.20;5.60;;;10.80;99.90;;;;;;5112939;28;20427;-53
2021/05/02 08:20:15;;;;;;;5.40;4.30;;;10.50;99.90;;;;;;5113872;28;20697;-52
2021/05/02 08:22:42;;;;;;;5.80;5.07;;;10.70;99.90;;;;;;5112325;28;20428;-56
2021/05/02 08:25:10;;;;;;;5.80;4.60;;;11.00;99.90;;;;;;5112935;28;20408;-53
2021/05/02 08:27:37;;;;;;;6.20;5.38;;;11.30;99.90;;;;;;5112988;28;20795;-53
2021/05/02 08:30:06;;;;;;;5.90;5.40;;;11.70;99.90;;;;;;5116099;28;20824;-53
2021/05/02 08:32:33;;;;;;;5.30;4.57;;;11.90;99.90;;;;;;5116283;28;20873;-53
2021/05/02 08:35:01;;;;;;;4.90;4.40;;;11.70;99.90;;;;;;5115237;28;20436;-55
2021/05/02 08:37:28;;;;;;;4.82;4.32;;;11.50;99.90;;;;;;5115997;28;20424;-56
2021/05/02 08:39:55;;;;;;;5.65;5.10;;;11.70;99.90;;;;;;5116242;28;20420;-55
2021/05/02 08:42:21;;;;;;;6.03;5.07;;;11.80;99.90;;;;;;5117767;28;20420;-55
2021/05/02 08:44:49;;;;;;;7.28;5.63;;;11.30;99.90;;;;;;5117214;28;20415;-52
2021/05/02 08:47:16;;;;;;;5.35;4.75;;;11.40;99.90;;;;;;5116835;28;20433;-56
2021/05/02 08:49:43;;;;;;;4.60;4.20;;;11.40;99.90;;;;;;5115461;28;20493;-54
2021/05/02 08:52:10;;;;;;;5.03;4.63;;;11.40;99.90;;;;;;5116563;28;20465;-56
2021/05/02 08:54:37;;;;;;;4.93;4.43;;;11.40;99.90;;;;;;5115909;28;20813;-58
2021/05/02 08:57:04;;;;;;;5.13;4.60;;;11.60;99.90;;;;;;5097473;28;20435;-56
2021/05/02 08:59:31;;;;;;;4.90;4.40;;;11.90;99.90;;;;;;5115323;28;20471;-57
2021/05/02 09:01:59;;;;;;;5.75;5.03;;;12.10;99.90;;;;;;5115973;28;20432;-52
2021/05/02 09:04:26;;;;;;;5.40;4.90;;;11.90;99.90;;;;;;5116076;28;20427;-57
2021/05/02 09:06:53;;;;;;;5.93;5.43;;;11.90;99.90;;;;;;5116855;28;20465;-55
2021/05/02 09:09:19;;;;;;;5.13;4.63;;;11.90;99.90;;;;;;5116054;28;20420;-57
2021/05/02 09:11:47;;;;;;;4.88;4.38;;;12.10;99.90;;;;;;5116831;28;20796;-55
2021/05/02 09:14:27;;;;;;;6.28;5.68;;;12.50;99.90;;;;;;5117154;28;20423;-53
2021/05/02 09:16:55;;;;;;;5.53;4.95;;;12.60;99.90;;;;;;5116552;28;20472;-56
2021/05/02 09:19:25;;;;;;;6.75;5.47;;;12.70;99.90;;;;;;5115200;28;20417;-57
2021/05/02 09:21:52;;;;;;;4.93;4.23;;;12.50;99.90;;;;;;5115581;28;20420;-53
2021/05/02 09:24:26;;;;;;;6.50;5.75;;;12.20;99.90;;;;;;5115953;28;20858;-57
2021/05/02 09:27:07;;;;;;;6.25;5.18;;;11.60;99.90;;;;;;5115750;28;20423;-57
2021/05/02 09:29:35;;;;;;;6.25;5.30;;;11.40;99.90;;;;;;5116805;28;20435;-54
2021/05/02 09:32:04;;;;;;;6.78;4.78;;;11.50;99.90;;;;;;5116738;28;20416;-57
2021/05/02 09:34:32;;;;;;;5.63;5.13;;;11.60;99.90;;;;;;5115198;28;20917;-58
2021/05/02 09:37:02;;;;;;;8.18;5.53;;;11.80;99.90;;;;;;5115252;28;20444;-56
2021/05/02 09:39:40;;;;;;;6.13;5.35;;;11.80;99.90;;;;;;5114203;28;20432;-57
2021/05/02 09:42:08;;;;;;;5.30;4.80;;;12.20;99.90;;;;;;5115125;28;20432;-57
2021/05/02 09:44:40;;;;;;;6.80;5.20;;;12.20;99.90;;;;;;5115068;28;20420;-58
2021/05/02 09:47:24;;;;;;;8.85;6.40;;;12.30;99.90;;;;;;5113752;28;20439;-60
2021/05/02 09:50:09;;;;;;;7.22;5.80;;;12.10;99.90;;;;;;5111792;28;20462;-55
2021/05/02 09:52:49;;;;;;;6.25;5.65;;;12.00;99.90;;;;;;5114044;28;20427;-52
2021/05/02 09:55:29;;;;;;;6.85;6.15;;;11.70;99.90;;;;;;5093715;28;20503;-59
2021/05/02 09:58:03;;;;;;;5.45;4.95;;;11.60;99.90;;;;;;5092482;28;20463;-57
2021/05/02 10:00:36;;;;;;;7.30;6.10;;;11.60;99.90;;;;;;5094069;28;20426;-56
2021/05/02 10:03:07;;;;;;;7.15;5.53;;;11.50;99.90;;;;;;5091302;28;20821;-57
2021/05/02 10:05:36;;;;;;;7.30;6.60;;;11.60;99.90;;;;;;5090654;28;20857;-56
2021/05/02 10:08:04;;;;;;;7.93;6.68;;;11.70;99.90;;;;;;5091918;28;20418;-59
2021/05/02 10:10:31;;;;;;;7.07;6.35;;;11.70;99.90;;;;;;5091852;28;20539;-56
2021/05/02 10:12:58;;;;;;;7.55;6.70;;;11.70;99.90;;;;;;5091589;28;20691;-58
2021/05/02 10:15:25;;;;;;;5.70;5.00;;;11.50;99.90;;;;;;5090227;28;20659;-58
2021/05/02 10:17:53;;;;;;;7.60;6.77;;;11.60;99.90;;;;;;5091581;28;20836;-58
2021/05/02 10:20:20;;;;;;;6.65;6.05;;;11.70;99.90;;;;;;5090566;28;20425;-56
2021/05/02 10:22:50;;;;;;;7.03;6.32;;;11.80;99.90;;;;;;5091510;28;20418;-59
2021/05/02 10:25:17;;;;;;;5.70;4.80;;;12.30;99.90;;;;;;5092294;28;20752;-59
2021/05/02 10:27:49;;;;;;;7.20;6.50;;;12.50;99.90;;;;;;5091702;28;20414;-57
2021/05/02 10:30:27;;;;;;;6.72;6.07;;;12.70;99.90;;;;;;5105173;28;20432;-57
2021/05/02 10:33:00;;;;;;;6.47;5.43;;;12.20;99.90;;;;;;5101497;28;20726;-58
2021/05/02 10:35:42;;;;;;;7.30;6.20;;;12.20;99.90;;;;;;5043576;28;1418496;-57
2021/05/02 10:38:10;;;;;;;6.20;5.70;;;12.10;99.90;;;;;;5102668;28;20576;-59
2021/05/02 10:40:39;;;;;;;5.60;5.10;;;12.10;99.90;;;;;;5100747;28;20428;-57
2021/05/02 10:43:09;;;;;;;6.00;5.50;;;12.20;99.90;;;;;;5109343;28;20437;-58
2021/05/02 10:45:45;;;;;;;5.45;4.95;;;12.20;99.90;;;;;;5093640;28;20434;-58
2021/05/02 10:48:48;;;;;;;6.60;5.95;;;12.70;99.90;;;;;;5110865;28;20851;-58
2021/05/02 10:51:31;;;;;;;6.10;5.60;;;13.40;99.90;;;;;;4999860;28;20518;-57
2021/05/02 10:54:13;;;;;;;6.22;5.68;;;13.50;99.90;;;;;;4992619;28;20880;-57
2021/05/02 10:56:58;;;;;;;7.03;6.10;;;13.80;99.90;;;;;;5066109;28;20460;-56
2021/05/02 10:59:28;;;;;;;6.20;5.60;;;14.20;99.90;;;;;;5110096;28;20866;-59
2021/05/02 11:01:55;;;;;;;6.47;5.88;;;14.80;99.90;;;;;;5113097;28;20711;-56
2021/05/02 11:04:55;;;;;;;6.13;5.63;;;14.20;99.90;;;;;;5093991;28;20767;-56
2021/05/02 11:07:33;;;;;;;6.50;6.00;;;13.90;99.90;;;;;;5091761;28;20900;-60
2021/05/02 11:10:01;;;;;;;6.47;5.88;;;13.10;99.90;;;;;;5091941;28;20977;-57
2021/05/02 11:12:30;;;;;;;5.97;5.38;;;13.10;99.90;;;;;;5093130;28;20737;-59
2021/05/02 11:14:56;;;;;;;6.05;5.55;;;13.30;99.90;;;;;;5094466;28;20433;-60
2021/05/02 11:17:31;;;;;;;5.40;4.90;;;13.60;99.90;;;;;;5109509;28;20432;-59
2021/05/02 11:20:00;;;;;;;5.80;5.20;;;13.80;99.90;;;;;;5107491;28;20446;-59
2021/05/02 11:22:28;;;;;;;6.43;5.93;;;13.90;99.90;;;;;;5107327;28;20423;-62
2021/05/02 11:24:56;;;;;;;7.05;6.35;;;13.70;99.90;;;;;;5105900;28;20428;-59
2021/05/02 11:27:51;;;;;;;5.13;4.70;;;13.20;99.90;;;;;;5103407;28;20859;-60
2021/05/02 11:30:24;;;;;;;5.28;4.88;;;12.60;99.90;;;;;;5098616;28;20428;-60
2021/05/02 11:32:53;;;;;;;6.23;5.60;;;12.20;99.90;;;;;;5102504;28;20432;-60
2021/05/02 11:35:56;;;;;;;7.35;5.30;;;12.10;99.90;;;;;;5096311;28;20870;-59
2021/05/02 11:38:38;;;;;;;6.00;5.47;;;11.50;99.90;;;;;;5093814;28;20429;-59
2021/05/02 11:41:10;;;;;;;7.28;5.35;;;11.30;99.90;;;;;;5090885;28;20509;-59
2021/05/02 11:43:39;;;;;;;5.88;5.38;;;11.40;99.90;;;;;;5109719;28;20483;-61
2021/05/02 11:46:16;;;;;;;5.32;4.32;;;11.50;99.90;;;;;;5109047;28;20723;-60
2021/05/02 11:48:43;;;;;;;8.23;5.75;;;11.80;99.90;;;;;;5111107;28;20835;-60
2021/05/02 11:51:20;;;;;;;6.05;5.40;;;12.60;99.90;;;;;;5112160;28;20416;-60
2021/05/02 11:53:49;;;;;;;7.70;6.60;;;13.20;99.90;;;;;;5099256;28;20482;-59
2021/05/02 11:56:30;;;;;;;6.50;5.90;;;13.70;99.90;;;;;;5092390;28;20426;-59
2021/05/02 11:59:02;;;;;;;6.70;6.20;;;14.30;99.90;;;;;;5092625;28;20812;-59
2021/05/02 12:01:30;;;;;;;5.05;4.65;;;14.10;99.90;;;;;;5092969;28;20818;-59
2021/05/02 12:04:07;;;;;;;4.80;4.32;;;14.00;99.90;;;;;;5094359;28;20721;-60
2021/05/02 12:06:36;;;;;;;4.60;4.20;;;14.50;99.90;;;;;;5096724;28;20418;-60
2021/05/02 12:09:12;;;;;;;3.72;3.42;;;14.60;99.90;;;;;;5115108;28;20423;-60
2021/05/02 12:11:45;;;;;;;3.60;3.30;;;14.80;99.90;;;;;;5114072;28;20695;-59
2021/05/02 12:14:19;;;;;;;3.70;3.28;;;14.40;99.90;;;;;;5110798;28;20818;-59
2021/05/02 12:16:49;;;;;;;3.35;2.92;;;14.10;99.90;;;;;;5110978;28;20420;-59
2021/05/02 12:19:17;;;;;;;5.35;4.85;;;13.70;99.90;;;;;;5113760;28;20427;-59
2021/05/02 12:21:46;;;;;;;3.25;2.95;;;13.40;99.90;;;;;;5114077;28;20427;-59
2021/05/02 12:24:14;;;;;;;2.85;2.13;;;13.00;99.90;;;;;;5101712;28;20427;-60
2021/05/02 12:26:43;;;;;;;3.55;2.97;;;13.00;99.90;;;;;;5113991;28;20419;-60
2021/05/02 12:29:14;;;;;;;4.65;4.25;;;12.70;99.90;;;;;;5114966;28;20432;-60
2021/05/02 12:31:43;;;;;;;4.20;3.80;;;12.10;99.90;;;;;;5101358;28;20461;-58
2021/05/02 12:34:11;;;;;;;3.40;2.20;;;11.60;99.90;;;;;;5107988;28;20425;-57
2021/05/02 12:36:38;;;;;;;3.00;2.27;;;11.30;99.90;;;;;;5095005;28;20430;-59
2021/05/02 12:39:10;;;;;;;1.90;1.60;;;11.10;99.90;;;;;;5096235;28;20463;-59
2021/05/02 12:41:38;;;;;;;1.80;1.20;;;10.90;99.90;;;;;;5095122;28;20414;-58
2021/05/02 12:44:18;;;;;;;1.40;1.02;;;11.10;99.90;;;;;;5094304;28;20430;-59
2021/05/02 12:46:47;;;;;;;1.70;1.07;;;11.70;99.90;;;;;;5095982;28;20643;-60
2021/05/02 12:49:20;;;;;;;1.43;1.10;;;11.80;99.90;;;;;;5095200;28;20430;-60
2021/05/02 12:51:49;;;;;;;1.70;1.10;;;11.60;99.90;;;;;;5096109;28;20414;-59
2021/05/02 12:54:21;;;;;;;1.50;1.20;;;11.90;99.90;;;;;;5095621;28;20771;-59